sensor_id;sensor_type;location;lat;lon;timestamp;pressure;altitude;pressure_sealevel;temperature;humidity
49423;BME280;36998;51.974;20.150;2022-12-18T00:00:58;101493.69;;;0.04;61.64
49423;BME280;36998;51.974;20.150;2022-12-18T00:03:23;101490.34;;;-0.01;61.94
49423;BME280;36998;51.974;20.150;2022-12-18T00:05:51;101496.94;;;-0.10;62.00
49423;BME280;36998;51.974;20.150;2022-12-18T00:08:19;101494.19;;;-0.08;62.06
49423;BME280;36998;51.974;20.150;2022-12-18T00:10:45;101500.19;;;-0.03;62.15
49423;BME280;36998;51.974;20.150;2022-12-18T00:13:12;101502.03;;;-0.05;62.16
49423;BME280;36998;51.974;20.150;2022-12-18T00:15:39;101492.53;;;-0.11;61.85
49423;BME280;36998;51.974;20.150;2022-12-18T00:18:05;101503.09;;;-0.09;61.93
49423;BME280;36998;51.974;20.150;2022-12-18T00:20:38;101512.72;;;-0.07;61.97
49423;BME280;36998;51.974;20.150;2022-12-18T00:23:05;101498.66;;;-0.09;62.24
49423;BME280;36998;51.974;20.150;2022-12-18T00:25:35;101499.91;;;-0.17;62.18
49423;BME280;36998;51.974;20.150;2022-12-18T00:28:03;101504.94;;;-0.11;62.21
49423;BME280;36998;51.974;20.150;2022-12-18T00:30:28;101503.22;;;-0.12;62.30
49423;BME280;36998;51.974;20.150;2022-12-18T00:32:54;101511.84;;;-0.07;62.12
49423;BME280;36998;51.974;20.150;2022-12-18T00:35:20;101516.13;;;-0.03;61.91
49423;BME280;36998;51.974;20.150;2022-12-18T00:37:45;101521.34;;;-0.02;62.08
49423;BME280;36998;51.974;20.150;2022-12-18T00:40:11;101531.78;;;0.03;61.96
49423;BME280;36998;51.974;20.150;2022-12-18T00:42:37;101528.06;;;0.07;61.92
49423;BME280;36998;51.974;20.150;2022-12-18T00:45:22;101536.91;;;0.08;62.22
49423;BME280;36998;51.974;20.150;2022-12-18T00:47:48;101538.75;;;0.06;62.07
49423;BME280;36998;51.974;20.150;2022-12-18T00:50:14;101543.34;;;0.02;62.17
49423;BME280;36998;51.974;20.150;2022-12-18T00:52:40;101550.78;;;-0.06;61.89
49423;BME280;36998;51.974;20.150;2022-12-18T00:55:07;101561.41;;;-0.06;61.89
49423;BME280;36998;51.974;20.150;2022-12-18T00:57:33;101557.81;;;-0.05;61.90
49423;BME280;36998;51.974;20.150;2022-12-18T00:59:58;101561.69;;;-0.14;62.26
49423;BME280;36998;51.974;20.150;2022-12-18T01:02:24;101567.94;;;-0.15;62.18
49423;BME280;36998;51.974;20.150;2022-12-18T01:04:50;101574.06;;;-0.13;61.89
49423;BME280;36998;51.974;20.150;2022-12-18T01:07:18;101578.94;;;-0.24;62.31
49423;BME280;36998;51.974;20.150;2022-12-18T01:09:44;101570.56;;;-0.35;62.33
49423;BME280;36998;51.974;20.150;2022-12-18T01:12:09;101572.22;;;-0.33;62.06
49423;BME280;36998;51.974;20.150;2022-12-18T01:14:36;101586.59;;;-0.38;62.48
49423;BME280;36998;51.974;20.150;2022-12-18T01:17:03;101582.41;;;-0.44;62.04
49423;BME280;36998;51.974;20.150;2022-12-18T01:19:32;101577.03;;;-0.42;62.56
49423;BME280;36998;51.974;20.150;2022-12-18T01:21:58;101585.13;;;-0.45;62.30
49423;BME280;36998;51.974;20.150;2022-12-18T01:24:24;101590.44;;;-0.45;62.66
49423;BME280;36998;51.974;20.150;2022-12-18T01:26:49;101592.16;;;-0.44;62.74
49423;BME280;36998;51.974;20.150;2022-12-18T01:29:15;101593.84;;;-0.42;62.52
49423;BME280;36998;51.974;20.150;2022-12-18T01:31:41;101598.41;;;-0.45;62.57
49423;BME280;36998;51.974;20.150;2022-12-18T01:34:06;101596.84;;;-0.51;62.90
49423;BME280;36998;51.974;20.150;2022-12-18T01:36:35;101588.13;;;-0.55;62.41
49423;BME280;36998;51.974;20.150;2022-12-18T01:39:05;101594.31;;;-0.54;62.90
49423;BME280;36998;51.974;20.150;2022-12-18T01:41:32;101591.78;;;-0.57;63.04
49423;BME280;36998;51.974;20.150;2022-12-18T01:49:55;101603.94;;;-0.52;63.20
49423;BME280;36998;51.974;20.150;2022-12-18T01:52:24;101604.44;;;-0.42;63.36
49423;BME280;36998;51.974;20.150;2022-12-18T01:54:51;101607.97;;;-0.41;62.98
49423;BME280;36998;51.974;20.150;2022-12-18T01:57:18;101620.28;;;-0.40;63.21
49423;BME280;36998;51.974;20.150;2022-12-18T01:59:46;101622.97;;;-0.40;63.13
49423;BME280;36998;51.974;20.150;2022-12-18T02:02:16;101621.47;;;-0.48;63.23
49423;BME280;36998;51.974;20.150;2022-12-18T02:04:43;101632.16;;;-0.49;63.00
49423;BME280;36998;51.974;20.150;2022-12-18T02:07:37;101616.25;;;-0.49;62.92
49423;BME280;36998;51.974;20.150;2022-12-18T02:12:43;101643.34;;;-0.64;62.92
49423;BME280;36998;51.974;20.150;2022-12-18T02:23:12;101659.84;;;-0.80;63.49
49423;BME280;36998;51.974;20.150;2022-12-18T02:26:02;101662.38;;;-0.77;63.60
49423;BME280;36998;51.974;20.150;2022-12-18T02:28:35;101666.59;;;-0.71;63.40
49423;BME280;36998;51.974;20.150;2022-12-18T02:31:08;101672.94;;;-0.75;63.57
49423;BME280;36998;51.974;20.150;2022-12-18T02:33:36;101658.78;;;-0.76;63.22
49423;BME280;36998;51.974;20.150;2022-12-18T02:36:03;101670.66;;;-0.86;63.77
49423;BME280;36998;51.974;20.150;2022-12-18T02:38:33;101671.66;;;-0.88;63.42
49423;BME280;36998;51.974;20.150;2022-12-18T02:41:06;101678.06;;;-0.94;63.68
49423;BME280;36998;51.974;20.150;2022-12-18T02:43:31;101681.38;;;-0.89;63.27
49423;BME280;36998;51.974;20.150;2022-12-18T02:46:00;101692.88;;;-0.88;63.37
49423;BME280;36998;51.974;20.150;2022-12-18T02:48:46;101691.78;;;-0.83;63.26
49423;BME280;36998;51.974;20.150;2022-12-18T02:51:33;101697.06;;;-0.81;63.37
49423;BME280;36998;51.974;20.150;2022-12-18T02:54:10;101706.09;;;-0.87;63.54
49423;BME280;36998;51.974;20.150;2022-12-18T02:56:45;101715.75;;;-0.86;63.20
49423;BME280;36998;51.974;20.150;2022-12-18T02:59:19;101706.09;;;-0.87;63.62
49423;BME280;36998;51.974;20.150;2022-12-18T03:01:57;101706.09;;;-0.87;63.61
49423;BME280;36998;51.974;20.150;2022-12-18T03:04:39;101711.81;;;-0.74;63.51
49423;BME280;36998;51.974;20.150;2022-12-18T03:07:10;101709.09;;;-0.73;63.30
49423;BME280;36998;51.974;20.150;2022-12-18T03:09:42;101712.69;;;-0.74;63.56
49423;BME280;36998;51.974;20.150;2022-12-18T03:12:17;101722.31;;;-0.71;63.26
49423;BME280;36998;51.974;20.150;2022-12-18T03:15:04;101723.94;;;-0.67;63.46
49423;BME280;36998;51.974;20.150;2022-12-18T03:17:37;101717.53;;;-0.61;63.38
49423;BME280;36998;51.974;20.150;2022-12-18T03:20:11;101711.91;;;-0.52;63.27
49423;BME280;36998;51.974;20.150;2022-12-18T03:22:38;101717.13;;;-0.51;63.24
49423;BME280;36998;51.974;20.150;2022-12-18T03:25:07;101724.06;;;-0.47;62.86
49423;BME280;36998;51.974;20.150;2022-12-18T03:27:39;101722.88;;;-0.39;62.90
49423;BME280;36998;51.974;20.150;2022-12-18T03:30:12;101729.00;;;-0.37;62.72
49423;BME280;36998;51.974;20.150;2022-12-18T03:32:42;101738.53;;;-0.32;62.67
49423;BME280;36998;51.974;20.150;2022-12-18T03:35:13;101725.50;;;-0.38;62.60
49423;BME280;36998;51.974;20.150;2022-12-18T03:37:39;101728.88;;;-0.33;62.54
49423;BME280;36998;51.974;20.150;2022-12-18T03:40:07;101736.75;;;-0.31;62.40
49423;BME280;36998;51.974;20.150;2022-12-18T03:48:10;101750.31;;;-0.15;62.47
49423;BME280;36998;51.974;20.150;2022-12-18T03:51:03;101751.09;;;-0.13;62.68
49423;BME280;36998;51.974;20.150;2022-12-18T03:53:48;101756.38;;;-0.12;62.30
49423;BME280;36998;51.974;20.150;2022-12-18T03:56:21;101756.69;;;-0.19;62.41
49423;BME280;36998;51.974;20.150;2022-12-18T03:58:50;101769.06;;;-0.20;62.04
49423;BME280;36998;51.974;20.150;2022-12-18T04:01:27;101770.75;;;-0.17;62.05
49423;BME280;36998;51.974;20.150;2022-12-18T04:03:54;101777.03;;;-0.20;62.26
49423;BME280;36998;51.974;20.150;2022-12-18T04:06:21;101788.47;;;-0.18;62.28
49423;BME280;36998;51.974;20.150;2022-12-18T04:08:48;101791.25;;;-0.21;62.08
49423;BME280;36998;51.974;20.150;2022-12-18T04:11:19;101791.56;;;-0.30;61.84
49423;BME280;36998;51.974;20.150;2022-12-18T04:13:46;101796.13;;;-0.34;61.92
49423;BME280;36998;51.974;20.150;2022-12-18T04:16:18;101808.53;;;-0.34;61.64
49423;BME280;36998;51.974;20.150;2022-12-18T04:18:45;101798.00;;;-0.36;62.00
49423;BME280;36998;51.974;20.150;2022-12-18T04:21:13;101811.28;;;-0.36;62.19
49423;BME280;36998;51.974;20.150;2022-12-18T04:23:39;101812.81;;;-0.30;61.96
49423;BME280;36998;51.974;20.150;2022-12-18T04:26:05;101810.88;;;-0.25;62.36
49423;BME280;36998;51.974;20.150;2022-12-18T04:28:49;101813.31;;;-0.19;62.06
49423;BME280;36998;51.974;20.150;2022-12-18T04:31:15;101814.97;;;-0.16;61.80
49423;BME280;36998;51.974;20.150;2022-12-18T04:33:41;101819.38;;;-0.15;61.54
49423;BME280;36998;51.974;20.150;2022-12-18T04:36:07;101824.72;;;-0.17;61.95
49423;BME280;36998;51.974;20.150;2022-12-18T04:38:33;101829.38;;;-0.24;61.84
49423;BME280;36998;51.974;20.150;2022-12-18T04:41:05;101829.56;;;-0.28;61.49
49423;BME280;36998;51.974;20.150;2022-12-18T04:43:30;101847.28;;;-0.29;61.79
49423;BME280;36998;51.974;20.150;2022-12-18T04:46:05;101841.13;;;-0.29;61.74
49423;BME280;36998;51.974;20.150;2022-12-18T04:48:32;101846.47;;;-0.31;61.82
49423;BME280;36998;51.974;20.150;2022-12-18T04:50:57;101846.44;;;-0.29;61.80
49423;BME280;36998;51.974;20.150;2022-12-18T04:53:23;101854.28;;;-0.26;61.75
49423;BME280;36998;51.974;20.150;2022-12-18T04:55:49;101850.81;;;-0.28;61.38
49423;BME280;36998;51.974;20.150;2022-12-18T04:58:15;101858.59;;;-0.24;61.66
49423;BME280;36998;51.974;20.150;2022-12-18T05:00:41;101840.00;;;-0.24;61.58
49423;BME280;36998;51.974;20.150;2022-12-18T05:03:07;101840.19;;;-0.28;61.46
49423;BME280;36998;51.974;20.150;2022-12-18T05:05:34;101839.31;;;-0.29;61.34
49423;BME280;36998;51.974;20.150;2022-12-18T05:08:00;101852.53;;;-0.27;61.63
49423;BME280;36998;51.974;20.150;2022-12-18T05:10:25;101850.06;;;-0.32;61.73
49423;BME280;36998;51.974;20.150;2022-12-18T05:12:51;101855.47;;;-0.35;61.41
49423;BME280;36998;51.974;20.150;2022-12-18T05:15:30;101856.41;;;-0.36;61.65
49423;BME280;36998;51.974;20.150;2022-12-18T05:17:57;101853.75;;;-0.36;61.79
49423;BME280;36998;51.974;20.150;2022-12-18T05:20:23;101856.22;;;-0.31;61.50
49423;BME280;36998;51.974;20.150;2022-12-18T05:22:49;101864.13;;;-0.30;61.82
49423;BME280;36998;51.974;20.150;2022-12-18T05:25:15;101864.19;;;-0.31;61.44
49423;BME280;36998;51.974;20.150;2022-12-18T05:27:41;101871.28;;;-0.32;61.40
49423;BME280;36998;51.974;20.150;2022-12-18T05:30:07;101868.56;;;-0.30;61.54
49423;BME280;36998;51.974;20.150;2022-12-18T05:32:33;101870.25;;;-0.28;61.32
49423;BME280;36998;51.974;20.150;2022-12-18T05:34:59;101865.91;;;-0.30;61.65
49423;BME280;36998;51.974;20.150;2022-12-18T05:37:24;101880.13;;;-0.31;61.37
49423;BME280;36998;51.974;20.150;2022-12-18T05:39:50;101876.63;;;-0.33;61.26
49423;BME280;36998;51.974;20.150;2022-12-18T05:42:15;101877.53;;;-0.33;61.67
49423;BME280;36998;51.974;20.150;2022-12-18T05:44:40;101879.19;;;-0.30;61.55
49423;BME280;36998;51.974;20.150;2022-12-18T05:47:06;101877.47;;;-0.31;61.48
49423;BME280;36998;51.974;20.150;2022-12-18T05:49:32;101886.41;;;-0.34;61.46
49423;BME280;36998;51.974;20.150;2022-12-18T05:51:57;101878.59;;;-0.38;61.23
49423;BME280;36998;51.974;20.150;2022-12-18T05:54:23;101891.16;;;-0.43;61.50
49423;BME280;36998;51.974;20.150;2022-12-18T05:56:48;101888.47;;;-0.42;61.42
49423;BME280;36998;51.974;20.150;2022-12-18T05:59:14;101895.59;;;-0.44;61.30
49423;BME280;36998;51.974;20.150;2022-12-18T06:01:39;101905.19;;;-0.40;61.45
49423;BME280;36998;51.974;20.150;2022-12-18T06:04:06;101904.88;;;-0.31;61.56
49423;BME280;36998;51.974;20.150;2022-12-18T06:06:32;101905.06;;;-0.35;61.10
49423;BME280;36998;51.974;20.150;2022-12-18T06:08:57;101911.59;;;-0.45;61.40
49423;BME280;36998;51.974;20.150;2022-12-18T06:11:25;101918.56;;;-0.43;61.27
49423;BME280;36998;51.974;20.150;2022-12-18T06:13:55;101915.22;;;-0.48;61.31
49423;BME280;36998;51.974;20.150;2022-12-18T06:16:21;101931.94;;;-0.46;61.26
49423;BME280;36998;51.974;20.150;2022-12-18T06:18:47;101925.63;;;-0.42;61.53
49423;BME280;36998;51.974;20.150;2022-12-18T06:21:13;101928.00;;;-0.34;61.45
49423;BME280;36998;51.974;20.150;2022-12-18T06:23:38;101935.03;;;-0.33;61.31
49423;BME280;36998;51.974;20.150;2022-12-18T06:26:07;101935.75;;;-0.28;61.42
49423;BME280;36998;51.974;20.150;2022-12-18T06:28:33;101935.69;;;-0.27;61.18
49423;BME280;36998;51.974;20.150;2022-12-18T06:30:58;101943.06;;;-0.35;61.33
49423;BME280;36998;51.974;20.150;2022-12-18T06:33:26;101943.94;;;-0.34;61.42
49423;BME280;36998;51.974;20.150;2022-12-18T06:35:53;101953.81;;;-0.38;61.28
49423;BME280;36998;51.974;20.150;2022-12-18T06:38:19;101959.09;;;-0.38;61.16
49423;BME280;36998;51.974;20.150;2022-12-18T06:40:44;101957.28;;;-0.36;60.88
49423;BME280;36998;51.974;20.150;2022-12-18T06:43:10;101961.50;;;-0.30;61.03
49423;BME280;36998;51.974;20.150;2022-12-18T06:45:35;101970.31;;;-0.30;61.11
49423;BME280;36998;51.974;20.150;2022-12-18T06:48:01;101967.72;;;-0.31;61.24
49423;BME280;36998;51.974;20.150;2022-12-18T06:50:26;101978.28;;;-0.30;60.87
49423;BME280;36998;51.974;20.150;2022-12-18T06:52:52;101978.06;;;-0.24;61.23
49423;BME280;36998;51.974;20.150;2022-12-18T06:55:18;101974.63;;;-0.26;61.35
49423;BME280;36998;51.974;20.150;2022-12-18T06:57:43;101979.78;;;-0.21;60.99
49423;BME280;36998;51.974;20.150;2022-12-18T07:00:10;101982.31;;;-0.18;60.92
49423;BME280;36998;51.974;20.150;2022-12-18T07:02:36;101983.09;;;-0.14;61.09
49423;BME280;36998;51.974;20.150;2022-12-18T07:05:02;101991.88;;;-0.12;60.75
49423;BME280;36998;51.974;20.150;2022-12-18T07:07:27;101995.19;;;-0.06;61.02
49423;BME280;36998;51.974;20.150;2022-12-18T07:09:53;102002.88;;;0.02;60.56
49423;BME280;36998;51.974;20.150;2022-12-18T07:12:18;102009.00;;;0.04;60.95
49423;BME280;36998;51.974;20.150;2022-12-18T07:14:44;102008.72;;;0.12;60.75
49423;BME280;36998;51.974;20.150;2022-12-18T07:17:09;102020.22;;;0.12;60.24
49423;BME280;36998;51.974;20.150;2022-12-18T07:19:35;102031.88;;;0.08;60.66
49423;BME280;36998;51.974;20.150;2022-12-18T07:22:01;102024.19;;;0.01;60.54
49423;BME280;36998;51.974;20.150;2022-12-18T07:24:26;102038.34;;;0.01;60.53
49423;BME280;36998;51.974;20.150;2022-12-18T07:26:52;102032.75;;;0.09;60.64
49423;BME280;36998;51.974;20.150;2022-12-18T07:29:18;102044.97;;;0.14;60.68
49423;BME280;36998;51.974;20.150;2022-12-18T07:31:43;102041.22;;;0.20;60.59
49423;BME280;36998;51.974;20.150;2022-12-18T07:34:13;102039.13;;;0.30;60.33
49423;BME280;36998;51.974;20.150;2022-12-18T07:36:39;102043.59;;;0.53;60.18
49423;BME280;36998;51.974;20.150;2022-12-18T07:39:04;102035.09;;;0.43;60.23
49423;BME280;36998;51.974;20.150;2022-12-18T07:41:30;102047.47;;;0.44;60.04
49423;BME280;36998;51.974;20.150;2022-12-18T07:44:03;102050.16;;;0.42;60.20
49423;BME280;36998;51.974;20.150;2022-12-18T07:46:29;102047.47;;;0.44;60.26
49423;BME280;36998;51.974;20.150;2022-12-18T07:48:54;102051.50;;;0.54;60.10
49423;BME280;36998;51.974;20.150;2022-12-18T07:51:21;102062.47;;;0.45;60.09
49423;BME280;36998;51.974;20.150;2022-12-18T07:53:47;102060.78;;;0.42;60.43
49423;BME280;36998;51.974;20.150;2022-12-18T07:56:13;102065.75;;;0.53;59.96
49423;BME280;36998;51.974;20.150;2022-12-18T07:58:38;102081.50;;;0.58;59.82
49423;BME280;36998;51.974;20.150;2022-12-18T08:01:05;102067.25;;;0.60;59.67
49423;BME280;36998;51.974;20.150;2022-12-18T08:03:31;102073.44;;;0.61;59.97
49423;BME280;36998;51.974;20.150;2022-12-18T08:06:01;102077.44;;;0.73;59.75
49423;BME280;36998;51.974;20.150;2022-12-18T08:08:28;102069.06;;;0.83;59.53
49423;BME280;36998;51.974;20.150;2022-12-18T08:10:54;102088.13;;;0.94;59.61
49423;BME280;36998;51.974;20.150;2022-12-18T08:13:20;102088.22;;;0.93;59.57
49423;BME280;36998;51.974;20.150;2022-12-18T08:15:45;102081.63;;;1.03;59.39
49423;BME280;36998;51.974;20.150;2022-12-18T08:18:11;102089.41;;;1.08;59.04
49423;BME280;36998;51.974;20.150;2022-12-18T08:20:36;102097.28;;;1.11;59.25
49423;BME280;36998;51.974;20.150;2022-12-18T08:23:02;102090.06;;;1.14;58.99
49423;BME280;36998;51.974;20.150;2022-12-18T08:25:27;102092.78;;;1.13;58.94
49423;BME280;36998;51.974;20.150;2022-12-18T08:27:53;102092.88;;;1.10;59.10
49423;BME280;36998;51.974;20.150;2022-12-18T08:30:19;102093.88;;;1.07;58.90
49423;BME280;36998;51.974;20.150;2022-12-18T08:32:44;102097.53;;;1.05;58.86
49423;BME280;36998;51.974;20.150;2022-12-18T08:35:10;102097.97;;;1.16;59.08
49423;BME280;36998;51.974;20.150;2022-12-18T08:37:37;102103.00;;;1.24;58.94
49423;BME280;36998;51.974;20.150;2022-12-18T08:40:03;102101.19;;;1.24;58.75
49423;BME280;36998;51.974;20.150;2022-12-18T08:42:29;102124.25;;;1.25;58.30
49423;BME280;36998;51.974;20.150;2022-12-18T08:45:13;102117.84;;;1.31;58.73
49423;BME280;36998;51.974;20.150;2022-12-18T08:47:38;102119.88;;;1.46;58.36
49423;BME280;36998;51.974;20.150;2022-12-18T08:50:04;102117.97;;;1.50;58.13
49423;BME280;36998;51.974;20.150;2022-12-18T08:52:32;102124.63;;;1.61;57.84
49423;BME280;36998;51.974;20.150;2022-12-18T08:54:57;102116.50;;;1.64;57.83
49423;BME280;36998;51.974;20.150;2022-12-18T08:57:23;102131.50;;;1.67;57.63
49423;BME280;36998;51.974;20.150;2022-12-18T08:59:48;102129.72;;;1.68;57.57
49423;BME280;36998;51.974;20.150;2022-12-18T09:02:14;102136.84;;;1.67;57.48
49423;BME280;36998;51.974;20.150;2022-12-18T09:04:39;102136.84;;;1.67;57.56
49423;BME280;36998;51.974;20.150;2022-12-18T09:07:06;102136.09;;;1.63;57.34
49423;BME280;36998;51.974;20.150;2022-12-18T09:09:31;102130.38;;;1.51;57.45
49423;BME280;36998;51.974;20.150;2022-12-18T09:11:57;102139.00;;;1.57;57.37
49423;BME280;36998;51.974;20.150;2022-12-18T09:14:22;102122.38;;;1.51;57.43
49423;BME280;36998;51.974;20.150;2022-12-18T09:16:48;102138.53;;;1.46;57.38
49423;BME280;36998;51.974;20.150;2022-12-18T09:19:13;102142.13;;;1.45;56.96
49423;BME280;36998;51.974;20.150;2022-12-18T09:21:39;102147.59;;;1.40;57.28
49423;BME280;36998;51.974;20.150;2022-12-18T09:24:06;102146.00;;;1.36;56.80
49423;BME280;36998;51.974;20.150;2022-12-18T09:26:31;102148.66;;;1.36;56.89
49423;BME280;36998;51.974;20.150;2022-12-18T09:28:57;102145.84;;;1.41;57.33
49423;BME280;36998;51.974;20.150;2022-12-18T09:31:24;102145.34;;;1.53;56.55
49423;BME280;36998;51.974;20.150;2022-12-18T09:33:50;102155.75;;;1.59;56.42
49423;BME280;36998;51.974;20.150;2022-12-18T09:36:17;102162.13;;;1.55;56.44
49423;BME280;36998;51.974;20.150;2022-12-18T09:38:43;102170.56;;;1.45;56.54
49423;BME280;36998;51.974;20.150;2022-12-18T09:43:51;102171.34;;;1.47;56.91
49423;BME280;36998;51.974;20.150;2022-12-18T09:46:26;102169.56;;;1.47;56.95
49423;BME280;36998;51.974;20.150;2022-12-18T09:48:58;102174.22;;;1.40;57.05
49423;BME280;36998;51.974;20.150;2022-12-18T09:51:29;102165.34;;;1.42;56.86
49423;BME280;36998;51.974;20.150;2022-12-18T09:54:03;102172.97;;;1.51;56.80
49423;BME280;36998;51.974;20.150;2022-12-18T09:56:35;102158.31;;;1.62;56.33
49423;BME280;36998;51.974;20.150;2022-12-18T09:59:04;102157.25;;;1.67;56.08
49423;BME280;36998;51.974;20.150;2022-12-18T10:01:30;102159.50;;;1.77;56.03
49423;BME280;36998;51.974;20.150;2022-12-18T10:03:57;102160.31;;;1.79;55.70
49423;BME280;36998;51.974;20.150;2022-12-18T10:06:32;102166.88;;;1.93;56.01
49423;BME280;36998;51.974;20.150;2022-12-18T10:19:59;102158.13;;;2.33;55.06
49423;BME280;36998;51.974;20.150;2022-12-18T10:22:53;102158.38;;;2.27;54.93
49423;BME280;36998;51.974;20.150;2022-12-18T10:25:49;102159.94;;;2.32;54.85
49423;BME280;36998;51.974;20.150;2022-12-18T10:28:18;102163.22;;;2.39;54.86
49423;BME280;36998;51.974;20.150;2022-12-18T10:30:44;102160.72;;;2.55;54.54
49423;BME280;36998;51.974;20.150;2022-12-18T10:33:21;102159.22;;;2.70;54.58
49423;BME280;36998;51.974;20.150;2022-12-18T10:35:49;102169.50;;;2.79;54.42
49423;BME280;36998;51.974;20.150;2022-12-18T10:40:50;102160.59;;;2.58;54.02
49423;BME280;36998;51.974;20.150;2022-12-18T10:43:20;102157.94;;;2.58;53.92
49423;BME280;36998;51.974;20.150;2022-12-18T10:48:34;102154.81;;;2.69;53.72
49423;BME280;36998;51.974;20.150;2022-12-18T10:51:02;102153.63;;;2.76;53.71
49423;BME280;36998;51.974;20.150;2022-12-18T10:53:30;102157.97;;;2.78;53.59
49423;BME280;36998;51.974;20.150;2022-12-18T10:56:02;102162.94;;;2.86;53.61
49423;BME280;36998;51.974;20.150;2022-12-18T10:58:36;102159.94;;;2.94;53.32
49423;BME280;36998;51.974;20.150;2022-12-18T11:01:12;102162.69;;;2.92;53.13
49423;BME280;36998;51.974;20.150;2022-12-18T11:06:20;102160.63;;;2.78;53.16
49423;BME280;36998;51.974;20.150;2022-12-18T11:09:17;102167.34;;;2.87;53.30
49423;BME280;36998;51.974;20.150;2022-12-18T11:11:52;102171.63;;;2.91;53.19
49423;BME280;36998;51.974;20.150;2022-12-18T11:14:26;102172.28;;;2.96;53.22
49423;BME280;36998;51.974;20.150;2022-12-18T11:16:53;102166.16;;;2.94;53.32
49423;BME280;36998;51.974;20.150;2022-12-18T11:22:02;102158.38;;;3.09;53.15
49423;BME280;36998;51.974;20.150;2022-12-18T11:24:35;102159.63;;;3.20;52.95
49423;BME280;36998;51.974;20.150;2022-12-18T11:27:05;102174.38;;;3.29;52.58
49423;BME280;36998;51.974;20.150;2022-12-18T11:29:36;102178.47;;;3.17;52.89
49423;BME280;36998;51.974;20.150;2022-12-18T11:32:27;102168.66;;;3.18;52.89
49423;BME280;36998;51.974;20.150;2022-12-18T11:35:20;102175.63;;;3.01;52.78
49423;BME280;36998;51.974;20.150;2022-12-18T11:37:53;102180.41;;;2.93;52.69
49423;BME280;36998;51.974;20.150;2022-12-18T11:40:30;102187.66;;;2.91;53.19
49423;BME280;36998;51.974;20.150;2022-12-18T11:45:28;102181.75;;;3.03;53.11
49423;BME280;36998;51.974;20.150;2022-12-18T11:48:01;102179.91;;;2.85;53.09
49423;BME280;36998;51.974;20.150;2022-12-18T11:50:48;102172.41;;;2.73;52.99
49423;BME280;36998;51.974;20.150;2022-12-18T11:53:15;102159.75;;;2.57;53.27
49423;BME280;36998;51.974;20.150;2022-12-18T12:01:04;102164.94;;;2.18;53.40
49423;BME280;36998;51.974;20.150;2022-12-18T12:08:51;102170.78;;;1.84;53.84
49423;BME280;36998;51.974;20.150;2022-12-18T12:14:19;102196.22;;;1.69;54.32
49423;BME280;36998;51.974;20.150;2022-12-18T12:25:31;102209.97;;;1.58;54.51
49423;BME280;36998;51.974;20.150;2022-12-18T12:31:18;102212.09;;;1.25;54.96
49423;BME280;36998;51.974;20.150;2022-12-18T12:34:09;102225.66;;;1.43;54.68
49423;BME280;36998;51.974;20.150;2022-12-18T12:39:11;102220.97;;;1.49;54.84
49423;BME280;36998;51.974;20.150;2022-12-18T12:41:39;102223.63;;;1.49;54.94
49423;BME280;36998;51.974;20.150;2022-12-18T12:44:29;102219.41;;;1.67;54.83
49423;BME280;36998;51.974;20.150;2022-12-18T12:47:00;102226.13;;;1.77;54.48
49423;BME280;36998;51.974;20.150;2022-12-18T12:49:31;102233.34;;;1.74;54.36
49423;BME280;36998;51.974;20.150;2022-12-18T12:52:07;102240.31;;;1.78;54.38
49423;BME280;36998;51.974;20.150;2022-12-18T12:54:36;102244.47;;;1.85;54.22
49423;BME280;36998;51.974;20.150;2022-12-18T12:57:09;102249.47;;;1.93;54.26
49423;BME280;36998;51.974;20.150;2022-12-18T12:59:52;102253.94;;;1.92;54.06
49423;BME280;36998;51.974;20.150;2022-12-18T13:02:30;102244.13;;;1.71;54.43
49423;BME280;36998;51.974;20.150;2022-12-18T13:05:52;102248.00;;;1.62;54.36
49423;BME280;36998;51.974;20.150;2022-12-18T13:08:08;102255.66;;;1.71;54.24
49423;BME280;36998;51.974;20.150;2022-12-18T13:10:43;102251.59;;;1.37;54.53
49423;BME280;36998;51.974;20.150;2022-12-18T13:13:11;102254.94;;;1.17;55.07
49423;BME280;36998;51.974;20.150;2022-12-18T13:18:25;102264.19;;;1.32;54.93
49423;BME280;36998;51.974;20.150;2022-12-18T13:21:01;102267.94;;;1.27;54.98
49423;BME280;36998;51.974;20.150;2022-12-18T13:23:30;102272.34;;;1.28;54.78
49423;BME280;36998;51.974;20.150;2022-12-18T13:31:10;102285.31;;;1.12;54.94
49423;BME280;36998;51.974;20.150;2022-12-18T13:33:37;102271.88;;;0.90;55.15
49423;BME280;36998;51.974;20.150;2022-12-18T13:36:14;102270.91;;;0.92;55.30
49423;BME280;36998;51.974;20.150;2022-12-18T13:38:41;102267.50;;;0.89;55.33
49423;BME280;36998;51.974;20.150;2022-12-18T13:43:37;102260.94;;;0.99;55.44
49423;BME280;36998;51.974;20.150;2022-12-18T13:49:03;102268.78;;;1.27;55.18
49423;BME280;36998;51.974;20.150;2022-12-18T13:51:33;102266.94;;;1.29;55.08
49423;BME280;36998;51.974;20.150;2022-12-18T13:54:02;102270.59;;;1.27;54.98
49423;BME280;36998;51.974;20.150;2022-12-18T13:56:32;102279.03;;;1.14;54.78
49423;BME280;36998;51.974;20.150;2022-12-18T14:01:34;102281.31;;;0.74;55.34
49423;BME280;36998;51.974;20.150;2022-12-18T14:06:50;102287.75;;;0.66;55.42
49423;BME280;36998;51.974;20.150;2022-12-18T14:09:21;102294.91;;;0.64;55.75
49423;BME280;36998;51.974;20.150;2022-12-18T14:11:49;102308.75;;;0.47;55.46
49423;BME280;36998;51.974;20.150;2022-12-18T14:14:19;102313.22;;;0.45;56.05
49423;BME280;36998;51.974;20.150;2022-12-18T14:16:45;102301.28;;;0.59;55.46
49423;BME280;36998;51.974;20.150;2022-12-18T14:19:14;102311.97;;;0.29;55.80
49423;BME280;36998;51.974;20.150;2022-12-18T14:21:47;102307.84;;;0.19;56.17
49423;BME280;36998;51.974;20.150;2022-12-18T14:24:20;102311.69;;;0.10;56.14
49423;BME280;36998;51.974;20.150;2022-12-18T14:26:48;102318.81;;;0.08;56.16
49423;BME280;36998;51.974;20.150;2022-12-18T14:32:21;102324.22;;;0.05;56.37
49423;BME280;36998;51.974;20.150;2022-12-18T14:34:52;102330.91;;;-0.11;56.17